createdAt,value
2019-02-21T00:00:23.939Z,3.54
2019-02-21T00:22:41.417Z,2.81
2019-02-21T00:25:08.898Z,2.70
2019-02-21T00:27:36.559Z,2.63
2019-02-21T00:30:04.805Z,2.57
2019-02-21T00:32:32.419Z,2.50
2019-02-21T00:35:00.323Z,2.42
2019-02-21T00:37:27.714Z,2.38
2019-02-21T00:39:54.808Z,2.41
2019-02-21T00:42:22.069Z,2.30
2019-02-21T00:44:50.003Z,2.25
2019-02-21T00:47:17.883Z,2.16
2019-02-21T00:49:45.422Z,2.15
2019-02-21T00:52:12.971Z,2.07
2019-02-21T00:54:40.227Z,2.00
2019-02-21T00:57:07.497Z,1.95
2019-02-21T00:59:34.903Z,1.96
2019-02-21T01:02:02.856Z,1.89
2019-02-21T01:04:33.360Z,1.86
2019-02-21T01:07:00.718Z,1.98
2019-02-21T01:09:28.283Z,1.91
2019-02-21T01:11:55.627Z,1.88
2019-02-21T01:14:22.860Z,1.95
2019-02-21T01:16:49.983Z,1.90
2019-02-21T01:19:17.745Z,1.74
2019-02-21T01:21:45.702Z,1.75
2019-02-21T01:24:12.851Z,1.69
2019-02-21T01:26:40.118Z,1.77
2019-02-21T01:29:07.964Z,1.79
2019-02-21T01:31:36.552Z,1.76
2019-02-21T01:34:03.989Z,1.70
2019-02-21T01:36:31.926Z,1.61
2019-02-21T01:38:59.348Z,1.58
2019-02-21T01:41:26.876Z,1.42
2019-02-21T01:43:54.440Z,1.44
2019-02-21T01:46:23.725Z,1.41
2019-02-21T01:48:51.745Z,1.36
2019-02-21T01:51:19.556Z,1.34
2019-02-21T01:53:47.674Z,1.35
2019-02-21T01:56:15.199Z,1.43
2019-02-21T01:58:42.726Z,1.36
2019-02-21T02:01:09.929Z,1.22
2019-02-21T02:03:38.203Z,1.13
2019-02-21T02:06:05.570Z,1.15
2019-02-21T02:08:33.500Z,1.05
2019-02-21T02:11:01.275Z,1.23
2019-02-21T02:13:28.432Z,1.30
2019-02-21T02:15:56.340Z,1.11
2019-02-21T02:18:24.215Z,1.06
2019-02-21T02:20:52.124Z,1.03
2019-02-21T02:23:19.283Z,1.06
2019-02-21T02:25:46.649Z,1.08
2019-02-21T02:28:14.660Z,1.04
2019-02-21T02:30:42.383Z,1.02
2019-02-21T02:33:10.210Z,1.07
2019-02-21T02:35:37.799Z,1.04
2019-02-21T02:38:06.139Z,0.91
2019-02-21T02:40:34.119Z,0.95
2019-02-21T02:43:01.579Z,0.92
2019-02-21T02:45:29.746Z,0.85
2019-02-21T02:47:57.240Z,0.79
2019-02-21T02:50:24.479Z,0.73
2019-02-21T02:52:52.664Z,0.72
2019-02-21T02:55:19.961Z,0.72
2019-02-21T02:57:47.169Z,0.69
2019-02-21T03:00:14.640Z,0.68
2019-02-21T03:02:42.347Z,0.63
2019-02-21T03:05:10.511Z,0.67
2019-02-21T03:07:37.855Z,0.76
2019-02-21T03:10:07.829Z,0.73
2019-02-21T03:12:35.234Z,0.74
2019-02-21T03:15:03.603Z,0.75
2019-02-21T03:17:31.452Z,0.78
2019-02-21T03:19:59.611Z,0.81
2019-02-21T03:22:26.957Z,0.94
2019-02-21T03:24:55.441Z,1.01
2019-02-21T03:27:22.946Z,1.11
2019-02-21T03:29:50.899Z,1.18
2019-02-21T03:32:18.358Z,1.26
2019-02-21T03:34:45.808Z,1.35
2019-02-21T03:37:13.138Z,1.42
2019-02-21T03:39:40.408Z,1.50
2019-02-21T03:42:08.016Z,1.64
2019-02-21T03:44:35.312Z,1.67
2019-02-21T03:47:02.843Z,1.79
2019-02-21T03:49:30.688Z,1.88
2019-02-21T03:51:58.714Z,1.90
2019-02-21T03:54:26.245Z,1.98
2019-02-21T03:56:54.439Z,1.96
2019-02-21T03:59:22.544Z,1.99
2019-02-21T04:01:51.167Z,2.07
2019-02-21T04:04:18.791Z,2.08
2019-02-21T04:06:46.031Z,2.15
2019-02-21T04:09:13.439Z,2.08
2019-02-21T04:11:41.017Z,2.15
2019-02-21T04:14:08.898Z,2.29
2019-02-21T04:16:36.543Z,2.33
2019-02-21T04:19:04.107Z,2.34
2019-02-21T04:21:31.755Z,2.36
2019-02-21T04:23:59.078Z,2.49
2019-02-21T04:26:26.757Z,2.52
2019-02-21T04:28:54.045Z,2.57
2019-02-21T04:31:21.919Z,2.48
2019-02-21T04:33:49.828Z,2.42
2019-02-21T04:36:17.204Z,2.38
2019-02-21T04:38:45.047Z,2.35
2019-02-21T04:41:12.479Z,2.26
2019-02-21T04:43:40.202Z,2.08
2019-02-21T04:46:07.680Z,2.07
2019-02-21T04:48:35.377Z,1.99
2019-02-21T04:51:03.040Z,1.94
2019-02-21T04:53:30.916Z,1.95
2019-02-21T04:55:58.892Z,1.87
2019-02-21T04:58:26.811Z,1.65
2019-02-21T05:00:54.298Z,1.60
2019-02-21T05:03:21.422Z,1.61
2019-02-21T05:05:48.980Z,1.57
2019-02-21T05:08:16.647Z,1.42
2019-02-21T05:10:44.234Z,1.30
2019-02-21T05:13:11.498Z,1.24
2019-02-21T05:15:38.904Z,1.17
2019-02-21T05:18:06.545Z,1.10
2019-02-21T05:20:34.044Z,1.09
2019-02-21T05:23:01.447Z,1.07
2019-02-21T05:25:28.955Z,1.00
2019-02-21T05:28:16.117Z,0.92
2019-02-21T05:30:44.129Z,0.90
2019-02-21T05:33:29.478Z,0.98
2019-02-21T05:36:18.970Z,1.00
2019-02-21T05:39:07.302Z,1.04
2019-02-21T05:41:41.804Z,1.04
2019-02-21T05:44:27.467Z,1.03
2019-02-21T05:47:00.375Z,1.12
2019-02-21T05:49:46.094Z,1.04
2019-02-21T05:52:30.634Z,0.98
2019-02-21T05:55:02.357Z,0.92
2019-02-21T05:57:45.987Z,0.88
2019-02-21T06:00:51.597Z,0.92
2019-02-21T06:03:47.277Z,0.96
2019-02-21T06:06:49.203Z,1.00
2019-02-21T06:09:24.936Z,1.09
2019-02-21T06:12:32.812Z,1.16
2019-02-21T06:15:14.023Z,1.06
2019-02-21T06:18:09.755Z,1.06
2019-02-21T06:20:59.876Z,0.99
2019-02-21T06:23:55.698Z,1.01
2019-02-21T06:26:31.835Z,1.11
2019-02-21T06:29:03.239Z,1.29
2019-02-21T06:31:31.219Z,1.27
2019-02-21T06:33:59.186Z,1.38
2019-02-21T06:36:27.235Z,1.39
2019-02-21T06:38:55.707Z,1.50
2019-02-21T06:41:23.641Z,1.46
2019-02-21T06:43:52.765Z,1.45
2019-02-21T06:46:20.814Z,1.51
2019-02-21T06:48:48.792Z,1.53
2019-02-21T06:51:16.454Z,1.51
2019-02-21T06:53:43.699Z,1.52
2019-02-21T06:56:11.532Z,1.55
2019-02-21T06:58:38.933Z,1.55
2019-02-21T07:01:06.959Z,1.54
2019-02-21T07:03:34.754Z,1.61
2019-02-21T07:06:02.941Z,1.75
2019-02-21T07:08:30.829Z,1.77
2019-02-21T07:11:05.846Z,1.85
2019-02-21T07:13:27.294Z,1.92
2019-02-21T07:15:54.442Z,1.93
2019-02-21T07:18:22.178Z,2.01
2019-02-21T07:20:49.919Z,2.10
2019-02-21T07:23:17.458Z,2.24
2019-02-21T07:25:46.638Z,2.34
2019-02-21T07:28:15.902Z,2.53
2019-02-21T07:30:43.995Z,2.64
2019-02-21T07:33:11.732Z,2.80
2019-02-21T07:35:39.555Z,2.99
2019-02-21T07:38:07.305Z,3.15
2019-02-21T07:40:34.700Z,3.32
2019-02-21T07:43:02.540Z,3.54
2019-02-21T07:45:30.117Z,3.87
2019-02-21T07:47:57.630Z,4.25
2019-02-21T07:50:25.235Z,4.68
2019-02-21T07:53:02.082Z,4.71
2019-02-21T07:55:23.286Z,4.90
2019-02-21T07:57:50.867Z,5.13
2019-02-21T08:00:18.599Z,5.41
2019-02-21T08:02:45.819Z,5.69
2019-02-21T08:05:13.216Z,6.00
2019-02-21T08:07:40.734Z,6.07
2019-02-21T08:10:08.522Z,6.49
2019-02-21T08:12:35.742Z,6.25
2019-02-21T08:15:04.037Z,6.43
2019-02-21T08:17:31.706Z,6.37
2019-02-21T08:20:07.984Z,6.37
2019-02-21T08:22:29.672Z,6.31
2019-02-21T08:24:57.283Z,6.47
2019-02-21T08:27:24.922Z,6.51
2019-02-21T08:29:52.484Z,6.40
2019-02-21T08:32:24.397Z,6.59
2019-02-21T08:34:52.802Z,6.48
2019-02-21T08:37:20.852Z,6.66
2019-02-21T08:39:48.356Z,6.64
2019-02-21T08:42:16.300Z,6.57
2019-02-21T08:44:43.442Z,6.77
2019-02-21T08:47:11.089Z,6.84
2019-02-21T08:49:39.085Z,6.93
2019-02-21T08:52:09.944Z,7.18
2019-02-21T08:54:37.074Z,7.08
2019-02-21T08:57:04.953Z,7.26
2019-02-21T08:59:32.749Z,7.28
2019-02-21T09:02:00.450Z,7.28
2019-02-21T09:04:28.843Z,7.43
2019-02-21T09:06:56.034Z,7.46
2019-02-21T09:09:24.083Z,7.56
2019-02-21T09:11:53.775Z,7.62
2019-02-21T09:14:21.400Z,7.68
2019-02-21T09:16:49.113Z,7.72
2019-02-21T09:19:16.524Z,7.78
2019-02-21T09:21:44.407Z,7.86
2019-02-21T09:24:13.909Z,8.04
2019-02-21T09:26:41.497Z,8.06
2019-02-21T09:29:08.818Z,8.27
2019-02-21T09:31:36.273Z,8.42
2019-02-21T09:34:03.681Z,8.53
2019-02-21T09:36:31.088Z,8.68
2019-02-21T09:38:58.543Z,8.75
2019-02-21T09:41:28.571Z,8.84
2019-02-21T09:43:55.459Z,8.86
2019-02-21T09:46:23.041Z,8.94
2019-02-21T09:48:50.625Z,8.99
2019-02-21T09:51:18.414Z,9.08
2019-02-21T09:53:45.859Z,9.43
2019-02-21T09:56:13.250Z,9.61
2019-02-21T09:58:45.786Z,9.66
2019-02-21T10:01:13.425Z,9.89
2019-02-21T10:03:41.088Z,9.98
2019-02-21T10:06:09.095Z,10.21
2019-02-21T10:08:36.484Z,10.21
2019-02-21T10:11:03.631Z,10.47
2019-02-21T10:13:31.043Z,10.48
2019-02-21T10:15:59.328Z,10.61
2019-02-21T10:18:27.889Z,10.58
2019-02-21T10:20:56.714Z,10.73
2019-02-21T10:23:24.556Z,10.41
2019-02-21T10:25:52.034Z,10.45
2019-02-21T10:28:19.742Z,10.39
2019-02-21T10:30:47.753Z,10.34
2019-02-21T10:33:15.730Z,10.47
2019-02-21T10:35:43.145Z,10.55
2019-02-21T10:38:10.850Z,10.66
2019-02-21T10:40:38.521Z,10.86
2019-02-21T10:43:06.023Z,10.83
2019-02-21T10:45:33.512Z,11.05
2019-02-21T10:48:01.264Z,11.12
2019-02-21T10:50:29.070Z,11.29
2019-02-21T10:52:56.602Z,11.33
2019-02-21T10:55:24.330Z,11.73
2019-02-21T10:57:52.090Z,11.86
2019-02-21T11:00:26.039Z,11.85
2019-02-21T11:02:54.859Z,11.85
2019-02-21T11:05:22.605Z,12.00
2019-02-21T11:07:49.718Z,12.03
2019-02-21T11:10:20.963Z,12.06
2019-02-21T11:12:48.468Z,12.28
2019-02-21T11:15:16.142Z,12.32
2019-02-21T11:17:43.867Z,12.43
2019-02-21T11:20:14.476Z,12.50
2019-02-21T11:22:42.325Z,12.63
2019-02-21T11:25:10.699Z,12.52
2019-02-21T11:27:38.658Z,12.71
2019-02-21T11:30:10.534Z,12.63
2019-02-21T11:32:37.975Z,12.76
2019-02-21T11:35:06.697Z,12.81
2019-02-21T11:37:42.745Z,12.94
2019-02-21T11:40:05.825Z,13.05
2019-02-21T11:42:33.333Z,13.09
2019-02-21T11:45:00.945Z,13.03
2019-02-21T11:47:29.943Z,13.14
2019-02-21T11:49:57.639Z,13.25
2019-02-21T11:52:24.774Z,13.36
2019-02-21T11:54:52.680Z,13.47
2019-02-21T11:57:20.184Z,13.69
2019-02-21T11:59:48.130Z,13.82
2019-02-21T12:02:16.055Z,14.12
2019-02-21T12:04:43.962Z,14.37
2019-02-21T12:07:11.467Z,14.68
2019-02-21T12:09:39.882Z,14.88
2019-02-21T12:12:10.301Z,14.98
2019-02-21T12:14:37.640Z,14.98
2019-02-21T12:17:05.284Z,15.15
2019-02-21T12:19:32.769Z,15.34
2019-02-21T12:22:00.642Z,15.46
2019-02-21T12:24:28.241Z,15.65
2019-02-21T12:26:56.476Z,15.96
2019-02-21T12:29:24.236Z,15.73
2019-02-21T12:31:51.854Z,15.65
2019-02-21T12:34:19.324Z,15.59
2019-02-21T12:36:47.031Z,15.76
2019-02-21T12:39:14.303Z,15.74
2019-02-21T12:41:42.019Z,15.65
2019-02-21T12:44:09.467Z,15.48
2019-02-21T12:46:37.165Z,15.57
2019-02-21T12:49:04.792Z,15.54
2019-02-21T12:51:32.603Z,15.63
2019-02-21T12:54:00.558Z,15.70
2019-02-21T12:56:28.051Z,15.55
2019-02-21T12:58:55.933Z,15.62
2019-02-21T13:01:23.292Z,15.66
2019-02-21T13:03:50.698Z,15.73
2019-02-21T13:06:18.696Z,15.66
2019-02-21T13:08:47.233Z,15.60
2019-02-21T13:11:15.105Z,15.54
2019-02-21T13:13:42.773Z,15.45
2019-02-21T13:16:10.311Z,15.45
2019-02-21T13:18:37.885Z,15.44
2019-02-21T13:21:05.157Z,15.34
2019-02-21T13:23:32.516Z,15.30
2019-02-21T13:26:00.594Z,15.16
2019-02-21T13:28:29.070Z,15.24
2019-02-21T13:30:56.909Z,15.40
2019-02-21T13:33:24.365Z,15.29
2019-02-21T13:35:53.228Z,15.31
2019-02-21T13:38:20.796Z,15.43
2019-02-21T13:40:49.656Z,15.53
2019-02-21T13:43:17.112Z,15.42
2019-02-21T13:45:44.262Z,15.43
2019-02-21T13:48:11.914Z,15.29
2019-02-21T13:50:39.408Z,15.07
2019-02-21T13:53:07.723Z,15.09
2019-02-21T13:55:36.035Z,15.10
2019-02-21T13:58:03.499Z,15.06
2019-02-21T14:00:30.863Z,14.97
2019-02-21T14:02:58.321Z,14.87
2019-02-21T14:05:26.094Z,14.88
2019-02-21T14:07:53.262Z,14.74
2019-02-21T14:10:20.858Z,14.78
2019-02-21T14:12:48.407Z,14.81
2019-02-21T14:15:18.831Z,14.87
2019-02-21T14:17:46.783Z,14.85
2019-02-21T14:20:14.999Z,14.84
2019-02-21T14:22:42.498Z,14.87
2019-02-21T14:25:10.472Z,14.68
2019-02-21T14:27:38.123Z,14.64
2019-02-21T14:30:09.007Z,14.63
2019-02-21T14:32:36.299Z,14.61
2019-02-21T14:35:04.687Z,14.44
2019-02-21T14:37:32.016Z,14.37
2019-02-21T14:39:59.991Z,14.42
2019-02-21T14:42:27.922Z,14.40
2019-02-21T14:44:55.653Z,14.35
2019-02-21T14:47:23.648Z,14.34
2019-02-21T14:49:50.748Z,14.15
2019-02-21T14:52:18.430Z,14.18
2019-02-21T14:54:46.268Z,14.10
2019-02-21T14:57:15.352Z,14.09
2019-02-21T14:59:44.790Z,14.11
2019-02-21T15:02:12.668Z,14.09
2019-02-21T15:04:39.935Z,13.98
2019-02-21T15:07:11.483Z,14.04
2019-02-21T15:09:39.678Z,13.97
2019-02-21T15:12:06.949Z,13.86
2019-02-21T15:14:34.090Z,13.85
2019-02-21T15:17:03.879Z,13.90
2019-02-21T15:19:31.587Z,13.75
2019-02-21T15:21:58.851Z,13.84
2019-02-21T15:24:26.081Z,13.71
2019-02-21T15:26:54.369Z,13.70
2019-02-21T15:29:21.751Z,13.63
2019-02-21T15:31:49.263Z,13.62
2019-02-21T15:34:16.906Z,13.56
2019-02-21T15:36:44.747Z,13.55
2019-02-21T15:39:12.841Z,13.55
2019-02-21T15:41:40.431Z,13.56
2019-02-21T15:44:08.099Z,13.52
2019-02-21T15:46:36.192Z,13.53
2019-02-21T15:49:04.237Z,13.45
2019-02-21T15:51:31.833Z,13.34
2019-02-21T15:53:59.091Z,13.26
2019-02-21T15:56:26.268Z,13.33
2019-02-21T15:58:53.689Z,13.29
2019-02-21T16:01:22.138Z,13.29
2019-02-21T16:03:49.444Z,13.25
2019-02-21T16:06:17.383Z,13.29
2019-02-21T16:08:45.104Z,13.29
2019-02-21T16:11:12.666Z,13.28
2019-02-21T16:13:40.530Z,13.21
2019-02-21T16:16:09.368Z,13.16
2019-02-21T16:18:36.631Z,13.14
2019-02-21T16:21:04.295Z,13.10
2019-02-21T16:23:32.053Z,13.07
2019-02-21T16:25:59.458Z,13.03
2019-02-21T16:28:27.566Z,13.01
2019-02-21T16:30:56.071Z,13.03
2019-02-21T16:33:23.463Z,13.02
2019-02-21T16:35:51.119Z,12.97
2019-02-21T16:38:18.755Z,12.92
2019-02-21T16:40:46.659Z,12.84
2019-02-21T16:43:13.944Z,12.82
2019-02-21T16:45:46.147Z,12.80
2019-02-21T16:48:11.417Z,12.78
2019-02-21T16:50:39.210Z,12.75
2019-02-21T16:53:07.042Z,12.64
2019-02-21T16:55:34.573Z,12.56
2019-02-21T16:58:01.743Z,12.61
2019-02-21T17:00:38.908Z,12.56
2019-02-21T17:02:58.395Z,12.50
2019-02-21T17:05:26.617Z,12.51
2019-02-21T17:07:54.057Z,12.47
2019-02-21T17:10:21.895Z,12.54
2019-02-21T17:12:50.136Z,12.50
2019-02-21T17:15:18.953Z,12.48
2019-02-21T17:17:46.702Z,12.47
2019-02-21T17:20:14.781Z,12.40
2019-02-21T17:22:43.046Z,12.39
2019-02-21T17:25:12.137Z,12.34
2019-02-21T17:27:39.702Z,12.23
2019-02-21T17:30:09.243Z,12.26
2019-02-21T17:32:37.370Z,12.24
2019-02-21T17:35:05.869Z,12.18
2019-02-21T17:37:33.656Z,12.05
2019-02-21T17:40:00.915Z,11.91
2019-02-21T17:42:28.820Z,11.90
2019-02-21T17:44:56.167Z,11.88
2019-02-21T17:47:23.836Z,11.79
2019-02-21T17:49:51.865Z,11.80
2019-02-21T17:52:19.239Z,11.72
2019-02-21T17:54:47.816Z,11.77
2019-02-21T17:57:31.170Z,11.78
2019-02-21T17:59:58.393Z,11.75
2019-02-21T18:02:26.109Z,11.80
2019-02-21T18:04:54.078Z,11.74
2019-02-21T18:07:22.348Z,11.74
2019-02-21T18:09:49.667Z,11.66
2019-02-21T18:12:17.164Z,11.63
2019-02-21T18:14:44.676Z,11.67
2019-02-21T18:17:12.339Z,11.65
2019-02-21T18:19:40.274Z,11.55
2019-02-21T18:22:08.262Z,11.57
2019-02-21T18:24:36.630Z,11.56
2019-02-21T18:27:04.453Z,11.55
2019-02-21T18:29:32.196Z,11.55
2019-02-21T18:31:59.581Z,11.53
2019-02-21T18:34:27.650Z,11.41
2019-02-21T18:36:54.920Z,11.43
2019-02-21T18:39:23.373Z,11.47
2019-02-21T18:41:50.933Z,11.46
2019-02-21T18:44:18.434Z,11.35
2019-02-21T18:46:46.020Z,11.32
2019-02-21T18:49:14.395Z,11.30
2019-02-21T18:51:42.015Z,11.31
2019-02-21T18:54:09.854Z,11.33
2019-02-21T18:56:37.307Z,11.28
2019-02-21T18:59:05.228Z,11.30
2019-02-21T19:01:32.753Z,11.27
2019-02-21T19:04:00.311Z,11.25
2019-02-21T19:06:28.071Z,11.24
2019-02-21T19:08:55.640Z,11.30
2019-02-21T19:11:23.301Z,11.26
2019-02-21T19:13:51.372Z,11.25
2019-02-21T19:16:24.887Z,11.30
2019-02-21T19:18:54.577Z,11.35
2019-02-21T19:21:22.572Z,11.30
2019-02-21T19:23:53.880Z,11.28
2019-02-21T19:26:21.258Z,11.29
2019-02-21T19:28:49.715Z,11.25
2019-02-21T19:31:18.850Z,11.30
2019-02-21T19:33:46.444Z,11.26
2019-02-21T19:36:13.932Z,11.26
2019-02-21T19:38:42.382Z,11.29
2019-02-21T19:41:10.297Z,11.23
2019-02-21T19:43:38.465Z,11.20
2019-02-21T19:46:07.850Z,11.26
2019-02-21T19:48:35.767Z,11.23
2019-02-21T19:51:03.466Z,11.21
2019-02-21T19:53:31.519Z,11.17
2019-02-21T19:55:59.288Z,11.16
2019-02-21T19:58:26.612Z,11.24
2019-02-21T20:00:54.546Z,11.25
2019-02-21T20:03:22.406Z,11.30
2019-02-21T20:05:50.337Z,11.28
2019-02-21T20:08:21.314Z,11.30
2019-02-21T20:10:47.895Z,11.29
2019-02-21T20:13:15.966Z,11.33
2019-02-21T20:15:43.967Z,11.29
2019-02-21T20:18:11.821Z,11.32
2019-02-21T20:20:40.214Z,11.33
2019-02-21T20:23:07.842Z,11.31
2019-02-21T20:25:36.375Z,11.28
2019-02-21T20:28:04.097Z,11.32
2019-02-21T20:30:31.915Z,11.32
2019-02-21T20:33:00.026Z,11.33
2019-02-21T20:35:27.788Z,11.32
2019-02-21T20:37:55.400Z,11.27
2019-02-21T20:40:23.305Z,11.31
2019-02-21T20:42:50.893Z,11.22
2019-02-21T20:45:18.399Z,11.27
2019-02-21T20:47:46.047Z,11.31
2019-02-21T20:50:13.792Z,11.35
2019-02-21T20:52:41.573Z,11.31
2019-02-21T20:55:09.349Z,11.34
2019-02-21T20:57:37.169Z,11.33
2019-02-21T21:00:07.120Z,11.33
2019-02-21T21:02:34.496Z,11.26
2019-02-21T21:05:04.904Z,11.26
2019-02-21T21:07:35.289Z,11.25
2019-02-21T21:10:07.173Z,11.23
2019-02-21T21:12:34.367Z,11.24
2019-02-21T21:15:02.579Z,11.27
2019-02-21T21:17:30.506Z,11.28
2019-02-21T21:19:58.087Z,11.26
2019-02-21T21:22:27.237Z,11.16
2019-02-21T21:24:54.753Z,11.26
2019-02-21T21:27:22.488Z,11.20
2019-02-21T21:29:51.095Z,11.22
2019-02-21T21:32:18.592Z,11.21
2019-02-21T21:34:46.461Z,11.19
2019-02-21T21:37:14.817Z,11.10
2019-02-21T21:39:45.288Z,11.12
2019-02-21T21:42:13.666Z,11.17
2019-02-21T21:44:41.510Z,11.19
2019-02-21T21:47:09.206Z,11.24
2019-02-21T21:49:39.445Z,11.20
2019-02-21T21:52:07.255Z,11.20
2019-02-21T21:54:45.776Z,11.20
2019-02-21T21:57:13.578Z,11.17
2019-02-21T21:59:41.505Z,11.17
2019-02-21T22:02:09.205Z,11.19
2019-02-21T22:04:36.958Z,11.15
2019-02-21T22:07:05.034Z,11.17
2019-02-21T22:09:32.615Z,11.16
2019-02-21T22:12:00.099Z,11.12
2019-02-21T22:14:27.769Z,11.10
2019-02-21T22:16:55.286Z,11.06
2019-02-21T22:19:22.501Z,11.09
2019-02-21T22:21:50.600Z,11.00
2019-02-21T22:24:18.429Z,10.98
2019-02-21T22:26:45.787Z,11.00
2019-02-21T22:29:13.668Z,11.06
2019-02-21T22:31:41.509Z,11.09
2019-02-21T22:34:09.337Z,11.06
2019-02-21T22:36:37.236Z,11.08
2019-02-21T22:39:15.974Z,11.10
2019-02-21T22:41:36.549Z,11.11
2019-02-21T22:44:04.711Z,11.10
2019-02-21T22:46:32.611Z,11.08
2019-02-21T22:49:00.349Z,11.08
2019-02-21T22:51:28.126Z,11.11
2019-02-21T22:53:55.398Z,11.10
2019-02-21T22:56:23.026Z,11.09
2019-02-21T22:58:50.541Z,11.06
2019-02-21T23:01:29.447Z,11.02
2019-02-21T23:04:32.697Z,10.94
2019-02-21T23:07:42.105Z,10.86
2019-02-21T23:10:09.865Z,10.88
2019-02-21T23:12:37.434Z,10.83
2019-02-21T23:15:06.453Z,10.77
2019-02-21T23:17:34.186Z,10.70
2019-02-21T23:20:01.845Z,10.66
2019-02-21T23:22:29.691Z,10.64
2019-02-21T23:24:57.330Z,10.53
2019-02-21T23:27:24.715Z,10.50
2019-02-21T23:29:51.829Z,10.49
2019-02-21T23:32:19.604Z,10.50
2019-02-21T23:34:47.430Z,10.51
2019-02-21T23:37:15.175Z,10.57
2019-02-21T23:39:42.984Z,10.63
2019-02-21T23:42:10.358Z,10.58
2019-02-21T23:44:38.417Z,10.58
2019-02-21T23:47:05.949Z,10.55
2019-02-21T23:49:33.653Z,10.48
2019-02-21T23:52:00.873Z,10.54
2019-02-21T23:54:28.343Z,10.46
2019-02-21T23:56:56.383Z,10.41
2019-02-21T23:59:23.688Z,10.28
